Aktuální počasí v Tlučné 

Teplota 4.6 °C
Minimální teplota 3.2 °C Maximální teplota 8.5 °C
Teplota rosného bodu 1.4 °C Pocitová teplota 4.3 °C
Tlak 1006.7 hPa
Směr a rychlost větru WSW 2.0 m/s
» 3.0 m/s
vlhkost 79.5 %
Teplota 0.0  mm/h
SlunceUV4.93 dnes zítra
↑ 05:47 ↑ 05:46
↓ 20:21 ↓ 20:22
   
Měsíc dnes zítra
↑ 07:31 ↑ 08:16
↓ 22:49 ↓ 23:59
   
  LKLN Metar
  LKLN Metar
2017/04/28 17:00
LKLN 281700Z AUTO 25003KT 200V300 9999 -RA FEW031 BKN035 OVC044 06/04 Q1013
Rychlost a směr větru 200° < 250° > 300°
5.6 km/h
--
10 km
32805.1 ft
Zataženo (1341 m) Skoro zataženo (1067 m) Skoro jasno (945 m)
Teplota 6 °C
Rosný bod 4°C
 
Tlak 1013 hPa
759.8 mmHg
 
  YR.no meteogram
  YR.no meteogram
Meteogram YR.no
  IN-Pocasi.cz
  IN-Pocasi.cz
In-Pocasi logo




  PocasiIdnes     CHMI     MeteoPress     Radar     Radar2  


  Valid XHTML 1.0 Transitional  


Provozni a servisni denik

Popis

ČKD / FAQ